Time;durP1;ratioP1;P1;durP2;ratioP2;P2;SDS_P1;SDS_P2;PMS_P1;PMS_P2;Temp;Humidity;BMP_temperature;BMP_pressure;BME280_temperature;BME280_humidity;BME280_pressure;Samples;Min_cycle;Max_cycle;Signal;HPM_P1;HPM_P2
2022/03/09 00:00:22;;;;;;;5.20;3.33;;;;;;;2.31;79.36;102341.13;5015532;28;20068;-78
2022/03/09 00:02:51;;;;;;;3.83;3.40;;;;;;;2.29;80.09;102345.34;4989960;28;20057;-78
2022/03/09 00:05:20;;;;;;;4.30;3.63;;;;;;;2.27;80.07;102341.75;5003821;28;20069;-79
2022/03/09 00:07:49;;;;;;;5.68;3.17;;;;;;;2.25;79.38;102332.03;4993901;28;20065;-79
2022/03/09 00:10:23;;;;;;;4.20;3.42;;;;;;;2.24;79.64;102331.16;5035203;28;20037;-78
2022/03/09 00:12:52;;;;;;;5.18;3.92;;;;;;;2.23;80.06;102328.44;5005369;28;20045;-78
2022/03/09 00:15:20;;;;;;;4.75;3.97;;;;;;;2.24;79.81;102336.34;5001064;28;20050;-78
2022/03/09 00:17:50;;;;;;;4.82;3.17;;;;;;;2.24;79.59;102325.06;5005413;28;20046;-79
2022/03/09 00:20:19;;;;;;;3.78;3.47;;;;;;;2.24;79.62;102331.16;5000517;28;20395;-79
2022/03/09 00:22:47;;;;;;;8.10;4.57;;;;;;;2.23;79.68;102324.16;4998595;28;20050;-79
2022/03/09 00:25:16;;;;;;;4.00;3.22;;;;;;;2.22;79.80;102337.97;5021623;28;20498;-78
2022/03/09 00:27:45;;;;;;;3.63;3.30;;;;;;;2.21;79.75;102337.84;4995279;28;20045;-78
2022/03/09 00:30:15;;;;;;;4.35;3.70;;;;;;;2.21;79.50;102332.66;5024684;28;20049;-77
2022/03/09 00:32:43;;;;;;;4.57;3.63;;;;;;;2.20;79.39;102341.28;5003954;28;20049;-78
2022/03/09 00:35:12;;;;;;;4.50;3.58;;;;;;;2.20;79.69;102338.69;5041233;28;20068;-78
2022/03/09 00:37:41;;;;;;;5.03;3.63;;;;;;;2.19;79.58;102334.28;4987420;28;20046;-79
2022/03/09 00:40:09;;;;;;;4.07;3.20;;;;;;;2.19;79.04;102348.16;4984697;28;20050;-78
2022/03/09 00:42:39;;;;;;;3.38;3.08;;;;;;;2.19;79.53;102345.56;5019693;28;20242;-79
2022/03/09 00:45:08;;;;;;;5.63;3.42;;;;;;;2.19;79.22;102340.38;4989182;28;20045;-79
2022/03/09 00:47:37;;;;;;;3.47;3.20;;;;;;;2.21;79.17;102354.38;5007880;28;20073;-78
2022/03/09 00:50:06;;;;;;;3.63;3.33;;;;;;;2.21;79.06;102351.78;5009499;28;20057;-78
2022/03/09 00:52:37;;;;;;;3.80;3.47;;;;;;;2.18;78.85;102335.97;5016786;28;20249;-78
2022/03/09 00:55:07;;;;;;;5.85;3.65;;;;;;;2.17;79.11;102348.88;5001724;28;20053;-78
2022/03/09 00:57:56;;;;;;;3.55;3.13;;;;;;;2.12;79.13;102333.91;5031574;28;20041;-78
2022/03/09 01:00:24;;;;;;;4.72;2.95;;;;;;;2.12;79.18;102338.22;5023372;28;20060;-78
2022/03/09 01:02:53;;;;;;;4.60;3.47;;;;;;;2.11;79.27;102333.81;5007260;28;20037;-78
2022/03/09 01:05:21;;;;;;;4.50;3.70;;;;;;;2.09;78.68;102327.63;5010476;28;20526;-78
2022/03/09 01:07:50;;;;;;;4.85;3.95;;;;;;;2.09;79.28;102341.50;5044153;28;20045;-78
2022/03/09 01:10:20;;;;;;;9.02;4.03;;;;;;;2.09;78.86;102336.31;4967258;28;20045;-78
2022/03/09 01:12:52;;;;;;;5.90;3.55;;;;;;;2.11;79.38;102336.41;5014747;28;20053;-78
2022/03/09 01:15:21;;;;;;;10.00;3.72;;;;;;;2.10;79.38;102337.22;5013604;28;20056;-79
2022/03/09 01:17:50;;;;;;;3.40;3.10;;;;;;;2.09;79.25;102333.69;5006967;28;20045;-78
2022/03/09 01:20:18;;;;;;;3.95;3.42;;;;;;;2.08;79.53;102336.19;5001357;28;20049;-79
2022/03/09 01:22:47;;;;;;;4.38;3.97;;;;;;;2.06;79.39;102333.53;4988634;28;20049;-79
2022/03/09 01:25:15;;;;;;;5.25;3.97;;;;;;;2.03;78.73;102330.72;5000700;28;20517;-78
2022/03/09 01:27:47;;;;;;;3.85;3.45;;;;;;;2.02;78.85;102328.91;5017884;28;20410;-77
2022/03/09 01:30:16;;;;;;;4.38;3.80;;;;;;;2.00;78.64;102327.94;4988268;28;20414;-78
2022/03/09 01:32:45;;;;;;;4.90;4.03;;;;;;;2.01;79.63;102326.25;5007218;28;20042;-78
2022/03/09 01:35:13;;;;;;;4.72;3.67;;;;;;;2.00;79.01;102340.94;5009213;28;20050;-79
2022/03/09 01:37:43;;;;;;;4.63;3.63;;;;;;;1.97;78.83;102330.38;5005586;28;20041;-79
2022/03/09 01:40:12;;;;;;;4.38;3.97;;;;;;;1.95;78.92;102332.88;5000512;28;20042;-78
2022/03/09 01:42:41;;;;;;;4.00;3.70;;;;;;;1.94;78.59;102333.66;5028615;28;20064;-79
2022/03/09 01:45:13;;;;;;;4.15;3.28;;;;;;;1.94;78.99;102333.66;5025817;28;20288;-77
2022/03/09 01:47:41;;;;;;;5.03;3.80;;;;;;;1.96;78.75;102336.34;5030522;28;20186;-79
2022/03/09 01:50:13;;;;;;;4.20;3.80;;;;;;;1.94;78.75;102336.25;4979506;28;20522;-79
2022/03/09 01:52:43;;;;;;;6.43;3.80;;;;;;;1.94;78.64;102348.38;4983285;28;20288;-78
2022/03/09 01:55:12;;;;;;;3.67;3.40;;;;;;;1.93;78.64;102349.19;5025012;28;20069;-79
2022/03/09 01:57:41;;;;;;;5.95;3.95;;;;;;;1.91;78.36;102336.09;5001839;28;20136;-78
2022/03/09 02:00:10;;;;;;;4.05;3.50;;;;;;;1.89;79.28;102342.88;5000594;28;20045;-80
2022/03/09 02:02:38;;;;;;;6.13;4.13;;;;;;;1.88;79.27;102337.59;5016838;28;20053;-80
2022/03/09 02:05:09;;;;;;;5.00;4.40;;;;;;;1.83;79.31;102324.28;5004664;28;20053;-79
2022/03/09 02:10:28;;;;;;;4.25;3.58;;;;;;;1.77;79.22;102321.31;5002291;28;20069;-80
2022/03/09 02:12:58;;;;;;;4.40;4.00;;;;;;;1.73;79.81;102316.72;5010540;28;20045;-79
2022/03/09 02:15:26;;;;;;;5.70;4.30;;;;;;;1.70;80.15;102316.53;4999570;28;20050;-80
2022/03/09 02:17:55;;;;;;;3.92;3.53;;;;;;;1.67;78.91;102326.75;5022868;28;20045;-78
2022/03/09 02:20:23;;;;;;;8.00;4.15;;;;;;;1.65;80.07;102310.16;5021005;28;20053;-79
2022/03/09 02:22:53;;;;;;;4.43;4.00;;;;;;;1.63;80.16;102310.06;4997948;28;20056;-78
2022/03/09 02:25:22;;;;;;;3.58;3.25;;;;;;;1.61;80.06;102308.16;4982627;28;20057;-80
2022/03/09 02:27:51;;;;;;;5.15;4.40;;;;;;;1.60;80.53;102315.06;4996309;28;20033;-78
2022/03/09 02:30:20;;;;;;;5.10;4.22;;;;;;;1.59;80.31;102310.69;5005326;28;20529;-80
2022/03/09 02:32:49;;;;;;;6.07;4.43;;;;;;;1.59;80.37;102320.16;5009615;28;20049;-79
2022/03/09 02:35:19;;;;;;;4.40;3.90;;;;;;;1.55;79.87;102319.97;5020814;28;20061;-79
2022/03/09 02:37:47;;;;;;;6.25;4.53;;;;;;;1.53;80.83;102315.47;5007096;28;20049;-79
2022/03/09 02:40:17;;;;;;;4.65;3.95;;;;;;;1.51;80.18;102306.69;5013733;28;20052;-79
2022/03/09 02:42:46;;;;;;;5.25;4.00;;;;;;;1.48;79.76;102312.59;5020344;28;20072;-80
2022/03/09 02:45:14;;;;;;;5.55;3.78;;;;;;;1.50;79.86;102316.19;4987811;28;20528;-79
2022/03/09 02:47:45;;;;;;;8.38;4.57;;;;;;;1.47;80.02;102307.28;4974672;28;20045;-79
2022/03/09 02:50:15;;;;;;;5.13;4.30;;;;;;;1.47;80.12;102315.97;5024824;28;20049;-79
2022/03/09 02:52:44;;;;;;;6.95;4.43;;;;;;;1.43;80.58;102303.59;5006863;28;20166;-79
2022/03/09 02:55:14;;;;;;;5.05;4.55;;;;;;;1.41;81.05;102307.78;4991707;28;20382;-79
2022/03/09 02:57:45;;;;;;;6.90;4.93;;;;;;;1.36;80.48;102312.72;5015945;28;20053;-78
2022/03/09 03:00:14;;;;;;;6.70;4.30;;;;;;;1.33;81.10;102316.81;5001792;28;20046;-78
2022/03/09 03:02:43;;;;;;;7.65;4.78;;;;;;;1.29;80.79;102315.72;5020265;28;20046;-80
2022/03/09 03:05:11;;;;;;;5.82;4.55;;;;;;;1.26;81.73;102325.00;5007967;28;20041;-79
2022/03/09 03:07:41;;;;;;;5.03;4.40;;;;;;;1.24;81.13;102324.00;5004996;28;20045;-79
2022/03/09 03:10:10;;;;;;;5.05;4.55;;;;;;;1.17;82.00;102321.03;5009209;28;20037;-79
2022/03/09 03:12:38;;;;;;;6.57;5.28;;;;;;;1.14;81.52;102320.81;5013804;28;20293;-81
2022/03/09 03:15:08;;;;;;;9.82;4.70;;;;;;;1.12;81.59;102321.50;4985850;28;20067;-81
2022/03/09 03:17:38;;;;;;;4.75;4.30;;;;;;;1.08;82.42;102322.13;5005072;28;20042;-79
2022/03/09 03:20:07;;;;;;;5.07;4.60;;;;;;;1.04;82.69;102322.69;4971924;28;20129;-78
2022/03/09 03:22:36;;;;;;;5.72;5.18;;;;;;;0.99;82.56;102325.00;4986174;28;20042;-79
2022/03/09 03:25:05;;;;;;;7.13;5.25;;;;;;;0.97;82.90;102321.41;5007713;28;20042;-80
2022/03/09 03:27:33;;;;;;;6.22;4.63;;;;;;;0.93;83.26;102322.91;4992423;28;20154;-79
2022/03/09 03:30:02;;;;;;;7.82;4.95;;;;;;;0.90;83.60;102324.38;4988576;28;20061;-79
2022/03/09 03:32:31;;;;;;;7.90;4.88;;;;;;;0.87;84.08;102330.28;4973822;28;20065;-80
2022/03/09 03:34:59;;;;;;;5.75;5.15;;;;;;;0.85;84.18;102321.50;5007562;28;20052;-78
2022/03/09 03:37:28;;;;;;;4.63;4.20;;;;;;;0.86;84.63;102330.19;4987815;28;20254;-80
2022/03/09 03:39:56;;;;;;;8.13;4.53;;;;;;;0.86;84.30;102327.59;5043763;28;20056;-79
2022/03/09 03:42:25;;;;;;;6.18;5.18;;;;;;;0.86;83.77;102335.38;4973057;28;20061;-79
2022/03/09 03:44:55;;;;;;;5.20;4.22;;;;;;;0.86;83.02;102337.97;5014150;28;20414;-79
2022/03/09 03:47:26;;;;;;;7.60;5.20;;;;;;;0.85;83.16;102329.28;4978554;28;20183;-79
2022/03/09 03:49:56;;;;;;;6.03;5.20;;;;;;;0.86;83.13;102343.16;5019450;28;20057;-79
2022/03/09 03:52:25;;;;;;;15.43;5.15;;;;;;;0.84;84.41;102344.75;5022000;28;20053;-80
2022/03/09 03:54:54;;;;;;;7.75;4.38;;;;;;;0.82;84.07;102336.88;5009042;28;20048;-79
2022/03/09 03:57:22;;;;;;;6.13;4.75;;;;;;;0.81;84.35;102348.03;4998721;28;20049;-79
2022/03/09 03:59:51;;;;;;;8.05;5.30;;;;;;;0.78;83.51;102340.06;5006363;28;20402;-80
2022/03/09 04:02:19;;;;;;;8.40;5.30;;;;;;;0.76;84.18;102345.13;4993024;28;20038;-80
2022/03/09 04:04:50;;;;;;;10.18;5.20;;;;;;;0.73;84.11;102344.91;5002658;28;20045;-78
2022/03/09 04:07:19;;;;;;;8.77;5.63;;;;;;;0.71;84.98;102335.25;5008725;28;20061;-80
2022/03/09 04:09:48;;;;;;;6.38;4.85;;;;;;;0.70;84.71;102341.22;5009650;28;20406;-78
2022/03/09 04:12:16;;;;;;;5.30;4.80;;;;;;;0.69;84.31;102345.50;5006194;28;20052;-79
2022/03/09 04:14:45;;;;;;;7.78;5.53;;;;;;;0.69;84.83;102344.63;5020664;28;20042;-78
2022/03/09 04:17:16;;;;;;;7.10;4.70;;;;;;;0.68;84.89;102348.94;5010579;28;20390;-79
2022/03/09 04:19:45;;;;;;;9.25;5.03;;;;;;;0.66;84.71;102342.75;4976480;28;20619;-79
2022/03/09 04:22:14;;;;;;;7.18;4.90;;;;;;;0.64;84.04;102335.63;5025295;28;20417;-79
2022/03/09 04:24:42;;;;;;;5.82;5.20;;;;;;;0.61;85.45;102336.31;5011582;28;20410;-80
2022/03/09 04:27:11;;;;;;;6.50;4.93;;;;;;;0.60;85.07;102331.91;5009409;28;20053;-79
2022/03/09 04:29:40;;;;;;;5.75;4.32;;;;;;;0.58;85.24;102326.63;5007528;28;20057;-80
2022/03/09 04:32:08;;;;;;;6.35;4.85;;;;;;;0.59;85.00;102332.72;4999671;28;20045;-79
2022/03/09 04:34:37;;;;;;;7.97;4.90;;;;;;;0.58;84.59;102336.09;5003734;28;20530;-80
2022/03/09 04:37:06;;;;;;;6.88;5.03;;;;;;;0.56;85.40;102333.41;4991003;28;20684;-78
2022/03/09 04:39:34;;;;;;;7.32;5.40;;;;;;;0.54;84.70;102339.28;5019290;28;20239;-78
2022/03/09 04:42:03;;;;;;;6.07;5.10;;;;;;;0.51;85.33;102329.63;4982641;28;20041;-80
2022/03/09 04:44:32;;;;;;;5.75;5.15;;;;;;;0.49;85.16;102335.47;5026714;28;20415;-78
2022/03/09 04:47:01;;;;;;;6.25;5.28;;;;;;;0.48;84.83;102336.28;5012901;28;20069;-78
2022/03/09 04:49:30;;;;;;;5.18;4.65;;;;;;;0.49;85.14;102338.06;4980516;28;20053;-79
2022/03/09 04:51:58;;;;;;;8.02;5.15;;;;;;;0.49;85.69;102340.66;4995881;28;20053;-79
2022/03/09 04:54:27;;;;;;;7.75;5.38;;;;;;;0.49;86.03;102340.66;5011557;28;20178;-79
2022/03/09 04:56:55;;;;;;;6.40;5.03;;;;;;;0.46;84.84;102351.75;5009282;28;20046;-79
2022/03/09 04:59:24;;;;;;;5.32;4.82;;;;;;;0.45;85.33;102349.03;4987116;28;20053;-79
2022/03/09 05:01:52;;;;;;;6.20;5.60;;;;;;;0.43;85.78;102342.84;5000925;28;20046;-79
2022/03/09 05:04:21;;;;;;;6.47;5.80;;;;;;;0.36;85.68;102342.44;5015144;28;20494;-79
2022/03/09 05:06:49;;;;;;;6.45;5.50;;;;;;;0.33;86.19;102341.34;5004070;28;20045;-79
2022/03/09 05:09:19;;;;;;;7.40;5.63;;;;;;;0.30;86.27;102343.69;5006409;28;20473;-79
2022/03/09 05:11:47;;;;;;;6.78;5.72;;;;;;;0.28;86.98;102347.88;5002073;28;20490;-79
2022/03/09 05:14:15;;;;;;;5.90;4.60;;;;;;;0.27;86.86;102353.88;5009027;28;20034;-79
2022/03/09 05:16:44;;;;;;;6.80;5.35;;;;;;;0.27;86.33;102352.19;4986434;28;20295;-79
2022/03/09 05:19:13;;;;;;;5.30;4.80;;;;;;;0.26;86.58;102345.19;4990419;28;20057;-79
2022/03/09 05:21:41;;;;;;;10.43;6.68;;;;;;;0.23;86.24;102351.84;5000528;28;20965;-78
2022/03/09 05:24:30;;;;;;;11.95;8.20;;;;;;;0.21;87.02;102349.16;5025243;28;20057;-78
2022/03/09 05:26:58;;;;;;;7.00;5.30;;;;;;;0.19;86.65;102345.56;5021357;28;20391;-79
2022/03/09 05:29:27;;;;;;;10.65;5.78;;;;;;;0.15;86.96;102351.31;5006180;28;20034;-80
2022/03/09 05:31:56;;;;;;;6.20;5.45;;;;;;;0.12;87.40;102348.53;5020201;28;20045;-78
2022/03/09 05:34:25;;;;;;;12.07;5.70;;;;;;;0.09;87.84;102349.19;4991077;28;20045;-79
2022/03/09 05:36:55;;;;;;;6.07;5.45;;;;;;;0.11;87.60;102347.59;5024743;28;20049;-78
2022/03/09 05:39:23;;;;;;;7.32;5.63;;;;;;;0.13;87.53;102345.13;5000475;28;20045;-79
2022/03/09 05:41:52;;;;;;;7.15;5.85;;;;;;;0.14;87.78;102341.75;5039875;28;20793;-78
2022/03/09 05:44:20;;;;;;;6.35;5.35;;;;;;;0.16;87.10;102342.75;5016350;28;20401;-79
2022/03/09 05:46:50;;;;;;;7.82;5.47;;;;;;;0.17;86.98;102339.34;5027826;28;20041;-79
2022/03/09 05:49:20;;;;;;;7.43;5.53;;;;;;;0.18;87.02;102349.84;5022915;28;20050;-79
2022/03/09 05:51:49;;;;;;;8.07;5.85;;;;;;;0.21;87.47;102345.66;5003151;28;20050;-79
2022/03/09 05:54:18;;;;;;;6.15;5.07;;;;;;;0.23;87.42;102341.47;4984243;28;20049;-79
2022/03/09 05:56:47;;;;;;;9.25;6.13;;;;;;;0.23;86.99;102354.44;5022009;28;20041;-78
2022/03/09 05:59:15;;;;;;;6.72;5.57;;;;;;;0.22;86.80;102342.28;4988450;28;20046;-79
2022/03/09 06:01:47;;;;;;;7.88;5.68;;;;;;;0.21;87.33;102353.44;4969399;28;20062;-77
2022/03/09 06:04:15;;;;;;;7.00;5.30;;;;;;;0.21;87.39;102356.94;4991093;28;20415;-79
2022/03/09 06:06:44;;;;;;;6.22;5.55;;;;;;;0.22;87.69;102366.50;5005346;28;20045;-79
2022/03/09 06:09:12;;;;;;;7.75;5.70;;;;;;;0.23;86.73;102378.69;5019672;28;20056;-79
2022/03/09 06:11:42;;;;;;;11.85;5.68;;;;;;;0.21;86.81;102369.00;5040921;28;20049;-78
2022/03/09 06:14:11;;;;;;;7.55;5.70;;;;;;;0.22;87.31;102374.28;4973440;28;20589;-80
2022/03/09 06:16:40;;;;;;;7.85;5.25;;;;;;;0.22;86.98;102373.41;5001843;28;20050;-79
2022/03/09 06:19:12;;;;;;;9.32;5.75;;;;;;;0.22;87.73;102381.19;5032674;28;20041;-80
2022/03/09 06:21:40;;;;;;;8.10;5.78;;;;;;;0.21;87.37;102380.28;5007965;28;20033;-79
2022/03/09 06:24:10;;;;;;;6.85;5.28;;;;;;;0.20;88.16;102383.66;5009267;28;20061;-80
2022/03/09 06:26:39;;;;;;;10.15;6.90;;;;;;;0.21;86.85;102388.06;5002823;28;20052;-79
2022/03/09 06:29:08;;;;;;;8.88;5.78;;;;;;;0.21;87.21;102393.25;5021954;28;20064;-80
2022/03/09 06:31:38;;;;;;;8.10;6.25;;;;;;;0.21;87.92;102393.25;4989284;28;20053;-81
2022/03/09 06:34:07;;;;;;;9.20;5.60;;;;;;;0.21;87.76;102405.28;4991285;28;20152;-78
2022/03/09 06:36:36;;;;;;;8.05;6.07;;;;;;;0.20;87.06;102388.84;4971099;28;20049;-79
2022/03/09 06:39:07;;;;;;;7.70;5.90;;;;;;;0.20;87.63;102391.44;4969487;28;20690;-80
2022/03/09 06:41:36;;;;;;;10.23;6.60;;;;;;;0.19;87.77;102393.13;5009178;28;20033;-79
2022/03/09 06:44:15;;;;;;;6.80;5.47;;;;;;;0.21;88.48;102405.28;4999236;28;20248;-79
2022/03/09 06:46:44;;;;;;;7.50;5.80;;;;;;;0.22;88.56;102399.31;5002628;28;20525;-79
2022/03/09 06:49:13;;;;;;;8.38;5.10;;;;;;;0.25;88.16;102402.16;4987644;28;20069;-79
2022/03/09 06:51:41;;;;;;;6.95;5.25;;;;;;;0.28;88.38;102398.03;5002052;28;20053;-77
2022/03/09 06:54:13;;;;;;;7.32;5.53;;;;;;;0.37;87.93;102403.88;4997835;28;20257;-79
2022/03/09 06:56:42;;;;;;;8.90;5.93;;;;;;;0.77;88.94;102411.78;5006765;28;20044;-79
2022/03/09 06:59:13;;;;;;;7.55;5.43;;;;;;;1.33;88.64;102411.19;4985110;28;20463;-79
2022/03/09 07:01:41;;;;;;;5.78;5.20;;;;;;;1.76;88.55;102418.31;4989118;28;20159;-78
2022/03/09 07:04:10;;;;;;;6.97;5.68;;;;;;;2.47;87.76;102420.09;5018021;28;20037;-78
2022/03/09 07:06:40;;;;;;;8.20;5.65;;;;;;;3.17;86.64;102425.16;4990542;28;20057;-80
2022/03/09 07:09:08;;;;;;;6.82;6.07;;;;;;;3.89;84.96;102422.34;5028862;28;20041;-80
2022/03/09 07:11:37;;;;;;;5.95;5.35;;;;;;;4.45;82.26;102413.19;4975611;28;22715;-81
2022/03/09 07:14:07;;;;;;;6.40;5.55;;;;;;;4.88;81.11;102417.16;5021790;28;20526;-82
2022/03/09 07:16:36;;;;;;;7.28;5.22;;;;;;;4.82;80.06;102419.44;5016194;28;20364;-81
2022/03/09 07:19:05;;;;;;;6.55;5.53;;;;;;;4.47;78.92;102429.81;5045765;28;20033;-81
2022/03/09 07:21:33;;;;;;;6.60;5.20;;;;;;;4.15;79.28;102430.69;4999053;28;20052;-81
2022/03/09 07:24:02;;;;;;;8.55;5.70;;;;;;;3.89;79.96;102427.56;5000155;28;20038;-82
2022/03/09 07:26:30;;;;;;;9.55;5.25;;;;;;;3.65;81.02;102432.28;4989982;28;20591;-81
2022/03/09 07:28:59;;;;;;;6.57;5.55;;;;;;;3.42;81.62;102430.06;5020790;28;20498;-81
2022/03/09 07:31:27;;;;;;;8.82;5.57;;;;;;;3.20;81.80;102417.53;5018476;28;20033;-80
2022/03/09 07:34:00;;;;;;;8.00;5.90;;;;;;;3.06;82.84;102425.44;5027005;28;20474;-81
2022/03/09 07:36:29;;;;;;;8.60;6.00;;;;;;;2.98;83.24;102426.66;4984871;28;20048;-81
2022/03/09 07:39:00;;;;;;;6.90;5.95;;;;;;;2.99;85.07;102423.25;5017922;28;20672;-80
2022/03/09 07:41:41;;;;;;;;;;;;;;;3.03;80.81;102432.16;5009141;28;20050;-80
2022/03/09 07:44:09;;;;;;;5.50;5.00;;;;;;;3.16;86.59;102423.34;4999248;28;20030;-81
2022/03/09 07:46:38;;;;;;;9.48;5.53;;;;;;;3.51;88.82;102415.84;5021397;28;20537;-82
2022/03/09 07:49:08;;;;;;;8.98;6.07;;;;;;;4.04;89.00;102421.38;4946039;28;20054;-81
2022/03/09 07:51:38;;;;;;;9.57;5.55;;;;;;;4.64;88.64;102419.38;5013059;28;20038;-82
2022/03/09 07:54:07;;;;;;;6.88;5.47;;;;;;;5.21;87.33;102419.69;5016170;28;20052;-81
2022/03/09 07:56:40;;;;;;;6.70;5.38;;;;;;;5.63;82.83;102418.31;4986122;28;20034;-80
2022/03/09 07:59:11;;;;;;;6.07;5.10;;;;;;;5.99;81.83;102417.38;5015970;28;20053;-81
2022/03/09 08:01:43;;;;;;;8.63;5.25;;;;;;;6.31;80.58;102429.34;5037646;28;20585;-80
2022/03/09 08:04:12;;;;;;;6.55;5.38;;;;;;;6.62;80.47;102428.16;5020554;28;20062;-82
2022/03/09 08:06:43;;;;;;;8.63;5.97;;;;;;;6.92;78.67;102433.84;4988253;28;21099;-81
2022/03/09 08:09:11;;;;;;;9.77;5.57;;;;;;;7.18;77.08;102434.97;5033407;28;20049;-80
2022/03/09 08:11:41;;;;;;;7.72;6.10;;;;;;;7.26;73.92;102423.88;4995802;28;20053;-81
2022/03/09 08:14:13;;;;;;;10.32;5.32;;;;;;;7.40;74.80;102427.97;4970793;28;20057;-82
2022/03/09 08:16:42;;;;;;;6.13;5.40;;;;;;;7.39;71.53;102426.19;5010005;28;20041;-82
2022/03/09 08:19:11;;;;;;;6.13;5.53;;;;;;;7.55;72.57;102425.97;5008454;28;20034;-83
2022/03/09 08:21:39;;;;;;;9.00;5.65;;;;;;;7.73;72.42;102423.22;5014054;28;20054;-80
2022/03/09 08:24:08;;;;;;;5.88;5.28;;;;;;;7.94;72.78;102402.19;5045130;28;20041;-80
2022/03/09 08:26:39;;;;;;;6.35;5.40;;;;;;;8.13;70.44;102409.03;5012296;28;20288;-82
2022/03/09 08:29:08;;;;;;;8.35;5.32;;;;;;;8.31;70.53;102413.19;4999616;28;20056;-81
2022/03/09 08:31:37;;;;;;;8.10;5.13;;;;;;;8.46;69.95;102411.16;5019238;28;20089;-81
2022/03/09 08:34:09;;;;;;;11.23;5.70;;;;;;;8.51;68.75;102408.72;5021811;28;20409;-81
2022/03/09 08:36:38;;;;;;;8.20;5.22;;;;;;;8.59;68.64;102413.38;5006404;28;20050;-81
2022/03/09 08:39:06;;;;;;;7.45;5.82;;;;;;;8.69;68.20;102411.09;5021844;28;20045;-81
2022/03/09 08:41:36;;;;;;;6.68;5.47;;;;;;;8.83;68.35;102416.84;5012405;28;20057;-80
2022/03/09 08:44:16;;;;;;;6.63;5.85;;;;;;;8.86;66.18;102417.84;5000036;28;20395;-80
2022/03/09 08:46:45;;;;;;;8.27;5.60;;;;;;;8.91;66.11;102416.28;5000803;28;20041;-81
2022/03/09 08:49:14;;;;;;;6.63;5.25;;;;;;;8.98;65.37;102409.50;5041165;28;20046;-81
2022/03/09 08:51:42;;;;;;;7.85;5.85;;;;;;;9.07;64.13;102415.06;5003249;28;20042;-81
2022/03/09 08:54:11;;;;;;;7.75;5.40;;;;;;;9.14;63.28;102417.06;5003651;28;20041;-81
2022/03/09 08:56:40;;;;;;;6.97;5.57;;;;;;;9.29;62.52;102413.19;5007339;28;21086;-81
2022/03/09 08:59:09;;;;;;;6.40;5.03;;;;;;;9.32;61.89;102422.06;4981095;28;20046;-81
2022/03/09 09:01:38;;;;;;;6.07;5.03;;;;;;;9.23;60.16;102411.22;4999482;28;20052;-81
2022/03/09 09:04:16;;;;;;;7.55;5.43;;;;;;;9.17;59.55;102421.56;5015512;28;20037;-81
2022/03/09 09:06:48;;;;;;;6.30;5.70;;;;;;;9.11;59.09;102411.72;5020682;28;20064;-81
2022/03/09 09:09:17;;;;;;;6.75;5.25;;;;;;;9.16;58.90;102418.00;5020069;28;20052;-80
2022/03/09 09:11:47;;;;;;;7.18;5.65;;;;;;;9.22;58.35;102427.84;5043995;28;20045;-80
2022/03/09 09:14:16;;;;;;;7.13;5.38;;;;;;;9.23;56.67;102421.75;5001224;28;20045;-81
2022/03/09 09:16:48;;;;;;;7.15;5.63;;;;;;;9.25;56.99;102413.94;4992911;28;20518;-81
2022/03/09 09:19:17;;;;;;;7.63;5.50;;;;;;;9.26;56.47;102411.34;5021266;28;20715;-80
2022/03/09 09:21:47;;;;;;;6.03;4.97;;;;;;;9.23;55.44;102408.59;5021413;28;20521;-81
2022/03/09 09:24:16;;;;;;;6.65;6.05;;;;;;;9.18;54.10;102418.06;5008713;28;20034;-81
2022/03/09 09:26:45;;;;;;;5.93;5.32;;;;;;;9.13;54.11;102417.00;5051310;28;20056;-80
2022/03/09 09:29:18;;;;;;;6.25;5.65;;;;;;;9.10;54.56;102420.44;5009497;28;20049;-83
2022/03/09 09:31:48;;;;;;;5.97;5.38;;;;;;;8.98;53.71;102413.03;4995550;28;20082;-81
2022/03/09 09:34:17;;;;;;;6.25;4.90;;;;;;;8.86;53.68;102409.06;5021561;28;20344;-81
2022/03/09 09:36:48;;;;;;;7.03;5.43;;;;;;;8.75;53.08;102406.06;5005240;28;20045;-81
2022/03/09 09:39:17;;;;;;;9.68;5.10;;;;;;;8.64;52.46;102396.88;5003533;28;20050;-83
2022/03/09 09:41:54;;;;;;;8.32;5.38;;;;;;;8.54;52.81;102401.84;4995677;28;20046;-81
2022/03/09 09:44:24;;;;;;;7.68;5.43;;;;;;;8.53;53.48;102404.41;4995665;28;20064;-81
2022/03/09 09:46:53;;;;;;;10.27;6.07;;;;;;;8.41;53.13;102404.78;5017937;28;20046;-81
2022/03/09 09:49:24;;;;;;;5.93;5.32;;;;;;;8.34;53.09;102397.53;5018621;28;20069;-82
2022/03/09 09:51:55;;;;;;;10.32;5.20;;;;;;;8.28;52.89;102403.47;5017967;28;20038;-81
2022/03/09 09:54:24;;;;;;;5.70;5.10;;;;;;;8.27;52.84;102406.91;5023203;28;20242;-81
2022/03/09 09:56:55;;;;;;;5.93;5.32;;;;;;;8.25;52.87;102402.44;5013859;28;20057;-82
2022/03/09 09:59:24;;;;;;;6.18;5.05;;;;;;;8.21;52.04;102398.81;5022925;28;20261;-81
2022/03/09 10:01:54;;;;;;;6.38;5.63;;;;;;;8.14;52.17;102405.53;5014890;28;20034;-82
2022/03/09 10:04:23;;;;;;;5.55;5.05;;;;;;;8.13;51.64;102400.25;4994433;28;20045;-82
2022/03/09 10:06:51;;;;;;;8.43;5.70;;;;;;;8.10;52.23;102394.88;4996340;28;20068;-81
2022/03/09 10:09:22;;;;;;;7.13;6.18;;;;;;;8.12;52.00;102401.97;4985963;28;20073;-81
2022/03/09 10:11:54;;;;;;;8.15;5.75;;;;;;;8.18;52.90;102396.97;5011356;28;20053;-82
2022/03/09 10:14:50;;;;;;;7.93;5.82;;;;;;;8.29;52.70;102399.09;5043176;28;20045;-81
2022/03/09 10:17:33;;;;;;;7.05;5.68;;;;;;;8.35;51.93;102399.31;5007006;28;20649;-82
2022/03/09 10:20:10;;;;;;;7.82;6.60;;;;;;;8.38;52.01;102400.34;5024648;28;20053;-81
2022/03/09 10:22:44;;;;;;;6.15;5.18;;;;;;;8.44;52.21;102398.81;5008894;28;20506;-82
2022/03/09 10:25:25;;;;;;;7.05;5.78;;;;;;;8.50;52.63;102396.41;4990914;28;20060;-83
2022/03/09 10:27:56;;;;;;;8.48;5.80;;;;;;;8.56;52.26;102401.88;4994841;28;20049;-83
2022/03/09 10:30:33;;;;;;;8.85;5.43;;;;;;;8.64;52.12;102399.50;4999147;28;20084;-82
2022/03/09 10:33:07;;;;;;;10.40;6.13;;;;;;;8.68;52.14;102398.81;5022873;28;20075;-83
2022/03/09 10:35:44;;;;;;;12.20;5.40;;;;;;;8.73;51.98;102405.09;5028625;28;20071;-82
2022/03/09 10:38:16;;;;;;;7.10;6.05;;;;;;;8.78;51.87;102399.16;5043749;28;20029;-82
2022/03/09 10:40:48;;;;;;;10.75;5.75;;;;;;;8.85;51.89;102404.66;4994679;28;20533;-82
2022/03/09 10:43:28;;;;;;;8.43;5.75;;;;;;;8.86;50.65;102407.31;5010241;28;20053;-81
2022/03/09 10:46:03;;;;;;;;;;;;;;;8.88;47.22;102402.13;5012554;28;20052;-82
2022/03/09 10:48:49;;;;;;;6.43;5.72;;;;;;;8.91;50.01;102402.25;5006876;28;20214;-82
2022/03/09 10:51:39;;;;;;;7.95;5.18;;;;;;;8.98;49.99;102402.50;5038016;28;20111;-83
2022/03/09 10:54:16;;;;;;;6.13;5.50;;;;;;;9.04;50.73;102399.19;5040267;28;20052;-80
2022/03/09 10:56:47;;;;;;;7.60;5.35;;;;;;;9.07;50.36;102406.28;5025943;28;20053;-81
2022/03/09 10:59:21;;;;;;;7.72;5.72;;;;;;;9.08;49.52;102408.09;5010032;28;20046;-82
2022/03/09 11:02:07;;;;;;;8.35;6.32;;;;;;;9.13;49.48;102403.84;5019683;28;20210;-81
2022/03/09 11:04:38;;;;;;;8.82;5.70;;;;;;;9.18;49.85;102402.28;5020483;28;20049;-82
2022/03/09 11:07:09;;;;;;;6.97;5.97;;;;;;;9.23;50.22;102403.34;4994618;28;20058;-82
2022/03/09 11:09:38;;;;;;;12.60;7.55;;;;;;;9.27;50.44;102402.59;5028361;28;20075;-81
2022/03/09 11:12:07;;;;;;;11.82;6.40;;;;;;;9.31;50.24;102404.47;4989476;28;20049;-81
2022/03/09 11:14:40;;;;;;;9.20;6.32;;;;;;;9.35;49.74;102387.06;5011213;28;20061;-83
2022/03/09 11:17:10;;;;;;;8.55;5.65;;;;;;;9.41;50.26;102392.53;5001880;28;20054;-82
2022/03/09 11:19:44;;;;;;;7.07;5.80;;;;;;;9.47;49.35;102391.81;5007933;28;20062;-82
2022/03/09 11:22:13;;;;;;;8.02;5.75;;;;;;;9.51;49.22;102396.38;5017999;28;20037;-82
2022/03/09 11:24:42;;;;;;;8.48;6.03;;;;;;;9.59;49.64;102399.25;5027863;28;20405;-83
2022/03/09 11:27:16;;;;;;;7.50;5.82;;;;;;;9.66;49.92;102383.69;5013382;28;20038;-81
2022/03/09 11:29:44;;;;;;;9.55;6.78;;;;;;;9.74;49.50;102386.56;5009810;28;20498;-81
2022/03/09 11:32:14;;;;;;;9.15;5.82;;;;;;;9.83;49.58;102376.31;5019277;28;20038;-81
2022/03/09 11:34:48;;;;;;;6.10;5.50;;;;;;;9.87;48.66;102382.59;5011028;28;20054;-81
2022/03/09 11:37:37;;;;;;;6.00;5.40;;;;;;;9.90;46.90;102390.56;5024151;28;20471;-81
2022/03/09 11:40:06;;;;;;;8.25;6.25;;;;;;;9.94;48.35;102376.63;5011164;28;20060;-82
2022/03/09 11:42:41;;;;;;;8.20;6.18;;;;;;;9.98;48.34;102369.72;5022228;28;20045;-82
2022/03/09 11:45:29;;;;;;;7.05;6.05;;;;;;;10.03;47.34;102361.09;5038805;28;20049;-82
2022/03/09 11:48:11;;;;;;;8.95;5.68;;;;;;;10.09;47.16;102361.31;5026500;28;20053;-80
2022/03/09 11:50:47;;;;;;;6.95;6.20;;;;;;;10.11;46.38;102349.06;4987083;28;20049;-81